Chicago, IL (60611)

4:41 PM CDT on September 25, 2016 (GMT -0500)
New East Side | | Change Station

Elev 0 ft 41.89 °N, 87.62 °W | Updated 5 minutes ago

Mostly Cloudy
Mostly Cloudy
81.3 °F
Feels Like 84 °F
N
1.2
Wind Variable Wind from SW
Gusts 5.0 mph

Today
High -- | Low -- °F
--% Chance of Precip.
Yesterday
High -- | Low -- °F
Precip. -- in
Pressure 29.88 in
Visibility 10.0 miles
Clouds Few 6000 ft
Few 11000 ft
Mostly Cloudy 24000 ft
Heat Index 84 °F
Dew Point 68 °F
Humidity 64%
Rainfall Not available.
Snow Depth Not available.
6:41 AM 6:41 PM
Waning Crescent, 24% visible
METAR KMDW 252053Z 11007KT 10SM FEW060 FEW110 BKN240 28/21 A2991 RMK AO2 PK WND 17026/2009 SLP119 RAB1958E21 TSE12 CB DSNT S-SW P0001 60001 T02830211 56037
Pressure 29.88 in
Visibility 10.0 miles
Clouds Few 6000 ft
Few 11000 ft
Mostly Cloudy 24000 ft
Heat Index 84 °F
Dew Point 68 °F
Humidity 64%
Rainfall Not available.
Snow Depth Not available.
6:41 AM 6:41 PM
Waning Crescent, 24% visible
METAR KMDW 252053Z 11007KT 10SM FEW060 FEW110 BKN240 28/21 A2991 RMK AO2 PK WND 17026/2009 SLP119 RAB1958E21 TSE12 CB DSNT S-SW P0001 60001 T02830211 56037

10-Day Weather Forecast

Almanac

Astronomy

Sep. 25, 2016 Rise Set
Actual Time
Civil Twilight
Nautical Twilight
Astronomical Twilight
Moon
Length of Visible Light
Length of Day
Tomorrow will be .
, % of the Moon is Illuminated

Today's Extremes

State Highs State Lows

Community

WunderPhotos

Upload Photos

1,941,752 photos uploaded!

WunderBlog® & News

Nearby

Air Quality

  Air Quality AQ Index Pollutant
Not available.

Snow Depth

Station Depth Elevation

Earthquake Activity

City Distance Mag. Time & Date
Minimum magnitude displayed is 2.5.

Coastal Water Temperatures

Place Temperature

Stations

Nearby Weather Stations

Station Location Temp. Windchill Dew Point Humidity Wind Precip. Elev Updated Type
                   

Watches & Warnings

There are currently no watches in effect.